Time;durP1;ratioP1;P1;durP2;ratioP2;P2;SDS_P1;SDS_P2;PMS_P1;PMS_P2;Temp;Humidity;BMP_temperature;BMP_pressure;BME280_temperature;BME280_humidity;BME280_pressure;Samples;Min_cycle;Max_cycle;Signal;HPM_P1;HPM_P2
2022/10/20 00:00:35;;;;;;;;;;;11.40;80.10;;;-151.14;100.00;62537.16;5087577;28;20234;-84
2022/10/20 00:03:03;;;;;;;;;;;11.40;80.90;;;-151.14;100.00;62537.16;5056303;28;20232;-84
2022/10/20 00:05:31;;;;;;;;;;;11.40;80.00;;;-151.14;100.00;62537.16;5055594;28;19921;-84
2022/10/20 00:08:00;;;;;;;;;;;11.40;79.90;;;-151.14;100.00;62537.16;5056174;28;20216;-84
2022/10/20 00:10:28;;;;;;;;;;;11.40;80.00;;;-151.14;100.00;62537.16;5072769;28;19920;-84
2022/10/20 00:12:56;;;;;;;;;;;11.40;80.00;;;-151.14;100.00;62537.16;5072770;28;19942;-84
2022/10/20 00:15:24;;;;;;;;;;;11.40;80.10;;;-151.14;100.00;62537.16;5072135;28;20129;-84
2022/10/20 00:17:52;;;;;;;;;;;11.40;80.00;;;-151.14;100.00;62537.16;5072845;28;19921;-83
2022/10/20 00:20:20;;;;;;;;;;;11.40;80.00;;;-151.14;100.00;62537.16;5072553;28;19920;-84
2022/10/20 00:22:48;;;;;;;;;;;11.40;79.90;;;-151.14;100.00;62537.16;5072757;28;19920;-84
2022/10/20 00:25:18;;;;;;;;;;;11.40;79.90;;;-151.14;100.00;62537.16;5071972;28;19927;-83
2022/10/20 00:27:45;;;;;;;;;;;11.40;80.00;;;-151.14;100.00;62537.16;5055799;28;19920;-84
2022/10/20 00:30:13;;;;;;;;;;;11.40;80.00;;;-151.14;100.00;62537.16;5072414;28;19921;-84
2022/10/20 00:32:41;;;;;;;;;;;11.40;80.00;;;-151.14;100.00;62537.16;5073648;28;19927;-84
2022/10/20 00:35:09;;;;;;;;;;;11.40;80.00;;;-151.14;100.00;62537.16;5071836;28;19927;-84
2022/10/20 00:37:37;;;;;;;;;;;11.40;79.80;;;-151.14;100.00;62537.16;5055761;28;19920;-84
2022/10/20 00:40:06;;;;;;;;;;;11.40;80.00;;;-151.14;100.00;62537.16;5055540;28;19921;-84
2022/10/20 00:42:35;;;;;;;;;;;11.40;80.00;;;-151.14;100.00;62537.16;5072147;28;20216;-84
2022/10/20 00:45:04;;;;;;;;;;;11.40;79.90;;;-151.14;100.00;62537.16;5054949;28;19921;-84
2022/10/20 00:47:37;;;;;;;;;;;11.40;79.80;;;-151.14;100.00;62537.16;5072197;28;19921;-84
2022/10/20 00:50:26;;;;;;;;;;;11.40;79.90;;;-151.14;100.00;62537.16;5073345;28;19921;-84
2022/10/20 00:52:54;;;;;;;;;;;11.40;80.00;;;-151.14;100.00;62537.16;5072214;28;19929;-84
2022/10/20 00:55:26;;;;;;;;;;;11.30;79.90;;;-151.14;100.00;62537.16;5071544;28;19921;-84
2022/10/20 00:57:56;;;;;;;;;;;11.40;79.90;;;-151.14;100.00;62537.16;5071898;28;19921;-84
2022/10/20 01:00:24;;;;;;;;;;;11.30;79.70;;;-151.14;100.00;62537.16;5072205;28;19927;-83
2022/10/20 01:02:53;;;;;;;;;;;11.30;79.70;;;-151.14;100.00;62537.16;5071943;28;19920;-84
2022/10/20 01:05:21;;;;;;;;;;;11.40;79.60;;;-151.14;100.00;62537.16;5072532;28;19927;-84
2022/10/20 01:07:48;;;;;;;;;;;11.40;79.60;;;-151.14;100.00;62537.16;5072059;28;20209;-83
2022/10/20 01:10:16;;;;;;;;;;;11.30;79.60;;;-151.14;100.00;62537.16;5055206;28;19920;-84
2022/10/20 01:12:48;;;;;;;;;;;11.30;79.60;;;-151.14;100.00;62537.16;5070949;28;19926;-84
2022/10/20 01:15:20;;;;;;;;;;;11.30;79.60;;;-151.14;100.00;62537.16;5072441;28;19921;-84
2022/10/20 01:17:50;;;;;;;;;;;11.30;79.20;;;-151.14;100.00;62537.16;5071759;28;19924;-83
2022/10/20 01:20:36;;;;;;;;;;;11.30;79.40;;;-151.14;100.00;62537.16;5054921;28;19920;-84
2022/10/20 01:23:39;;;;;;;;;;;11.30;79.10;;;-151.14;100.00;62537.16;5035143;28;19921;-83
2022/10/20 01:26:18;;;;;;;;;;;11.30;79.20;;;-151.14;100.00;62537.16;5051351;28;20216;-83
2022/10/20 01:28:48;;;;;;;;;;;11.30;79.10;;;-151.14;100.00;62537.16;5035083;28;20216;-84
2022/10/20 01:31:25;;;;;;;;;;;11.30;78.90;;;-151.14;100.00;62537.16;5035037;28;19927;-83
2022/10/20 01:33:56;;;;;;;;;;;11.30;78.80;;;-151.14;100.00;62537.16;5051005;28;19935;-84
2022/10/20 01:36:28;;;;;;;;;;;11.30;78.80;;;-151.14;100.00;62537.16;5051486;28;19921;-84
2022/10/20 01:38:58;;;;;;;;;;;11.30;78.80;;;-151.14;100.00;62537.16;5035002;28;19921;-84
2022/10/20 01:41:27;;;;;;;;;;;11.30;78.50;;;-151.14;100.00;62537.16;5034706;28;19925;-83
2022/10/20 01:43:56;;;;;;;;;;;11.30;78.50;;;-151.14;100.00;62537.16;5050977;28;19921;-84
2022/10/20 01:46:24;;;;;;;;;;;11.30;78.40;;;-151.14;100.00;62537.16;5052310;28;19921;-84
2022/10/20 01:48:52;;;;;;;;;;;11.30;78.60;;;-151.14;100.00;62537.16;5034797;28;19927;-83
2022/10/20 01:51:20;;;;;;;;;;;11.30;78.70;;;-151.14;100.00;62537.16;5034663;28;20124;-84
2022/10/20 01:53:48;;;;;;;;;;;11.30;78.30;;;-151.14;100.00;62537.16;5050741;28;20121;-83
2022/10/20 01:56:18;;;;;;;;;;;11.30;78.60;;;-151.14;100.00;62537.16;5051015;28;19920;-83
2022/10/20 01:59:21;;;;;;;;;;;11.30;78.50;;;-151.14;100.00;62537.16;5051105;28;19927;-83
2022/10/20 02:02:10;;;;;;;;;;;11.30;78.50;;;-151.14;100.00;62537.16;5054628;28;19927;-83
2022/10/20 02:04:46;;;;;;;;;;;11.30;78.50;;;-151.14;100.00;62537.16;5050526;28;19927;-83
2022/10/20 02:07:17;;;;;;;;;;;11.30;78.60;;;-151.14;100.00;62537.16;5034398;28;19927;-84
2022/10/20 02:09:46;;;;;;;;;;;11.30;78.40;;;-151.14;100.00;62537.16;5050936;28;19927;-84
2022/10/20 02:12:16;;;;;;;;;;;11.30;78.40;;;-151.14;100.00;62537.16;5050176;28;19927;-83
2022/10/20 02:14:44;;;;;;;;;;;11.30;78.40;;;-151.14;100.00;62537.16;5032954;28;19921;-84
2022/10/20 02:17:14;;;;;;;;;;;11.30;78.30;;;-151.14;100.00;62537.16;5050909;28;20108;-84
2022/10/20 02:19:43;;;;;;;;;;;11.30;78.40;;;-151.14;100.00;62537.16;5034221;28;19958;-83
2022/10/20 02:22:12;;;;;;;;;;;11.30;78.40;;;-151.14;100.00;62537.16;5034280;28;20098;-83
2022/10/20 02:24:41;;;;;;;;;;;11.30;78.60;;;-151.14;100.00;62537.16;5051370;28;19929;-83
2022/10/20 02:27:11;;;;;;;;;;;11.30;78.60;;;-151.14;100.00;62537.16;5050704;28;19927;-83
2022/10/20 02:29:42;;;;;;;;;;;11.30;78.60;;;-151.14;100.00;62537.16;5050624;28;20139;-83
2022/10/20 02:32:10;;;;;;;;;;;11.30;78.40;;;-151.14;100.00;62537.16;5050681;28;19927;-83
2022/10/20 02:34:39;;;;;;;;;;;11.30;78.50;;;-151.14;100.00;62537.16;5050086;28;19920;-84
2022/10/20 02:37:07;;;;;;;;;;;11.30;78.30;;;-151.14;100.00;62537.16;5050524;28;19927;-84
2022/10/20 02:39:35;;;;;;;;;;;11.30;78.20;;;-151.14;100.00;62537.16;5033927;28;19927;-83
2022/10/20 02:42:03;;;;;;;;;;;11.30;78.20;;;-151.14;100.00;62537.16;5050494;28;19920;-83
2022/10/20 02:44:31;;;;;;;;;;;11.30;78.10;;;-151.14;100.00;62537.16;5049949;28;19920;-83
2022/10/20 02:46:59;;;;;;;;;;;11.30;78.10;;;-151.14;100.00;62537.16;5050319;28;19927;-84
2022/10/20 02:49:27;;;;;;;;;;;11.30;78.10;;;-151.14;100.00;62537.16;5050469;28;19935;-83
2022/10/20 02:51:57;;;;;;;;;;;11.30;78.20;;;-151.14;100.00;62537.16;5051553;28;19927;-83
2022/10/20 02:54:26;;;;;;;;;;;11.30;78.20;;;-151.14;100.00;62537.16;5049696;28;19921;-83
2022/10/20 02:56:54;;;;;;;;;;;11.30;78.20;;;-151.14;100.00;62537.16;5033555;28;19921;-83
2022/10/20 02:59:22;;;;;;;;;;;11.30;78.00;;;-151.14;100.00;62537.16;5050371;28;19921;-83
2022/10/20 03:01:51;;;;;;;;;;;11.20;78.00;;;-151.14;100.00;62537.16;5050164;28;19927;-83
2022/10/20 03:04:19;;;;;;;;;;;11.20;78.00;;;-151.14;100.00;62537.16;5050838;28;19927;-83
2022/10/20 03:06:47;;;;;;;;;;;11.30;78.30;;;-151.14;100.00;62537.16;5033542;28;19921;-83
2022/10/20 03:09:16;;;;;;;;;;;11.30;78.20;;;-151.14;100.00;62537.16;5050049;28;19928;-83
2022/10/20 03:11:44;;;;;;;;;;;11.20;78.10;;;-151.14;100.00;62537.16;5050182;28;19928;-83
2022/10/20 03:14:12;;;;;;;;;;;11.20;78.10;;;-151.14;100.00;62537.16;5049501;28;19921;-83
2022/10/20 03:16:40;;;;;;;;;;;11.20;78.10;;;-151.14;100.00;62537.16;5033465;28;19929;-83
2022/10/20 03:19:08;;;;;;;;;;;11.20;78.30;;;-151.14;100.00;62537.16;5033817;28;20112;-83
2022/10/20 03:21:36;;;;;;;;;;;11.20;78.10;;;-151.14;100.00;62537.16;5033449;28;19927;-83
2022/10/20 03:24:05;;;;;;;;;;;11.20;78.20;;;-151.14;100.00;62537.16;5050471;28;19921;-83
2022/10/20 03:26:34;;;;;;;;;;;11.20;78.10;;;-151.14;100.00;62537.16;5033338;28;19921;-83
2022/10/20 03:29:02;;;;;;;;;;;11.20;78.10;;;-151.14;100.00;62537.16;5049817;28;19921;-83
2022/10/20 03:31:30;;;;;;;;;;;11.20;78.00;;;-151.14;100.00;62537.16;5049815;28;19920;-84
2022/10/20 03:33:58;;;;;;;;;;;11.20;78.00;;;-151.14;100.00;62537.16;5032865;28;20239;-83
2022/10/20 03:36:26;;;;;;;;;;;11.20;78.00;;;-151.14;100.00;62537.16;5035738;28;19921;-83
2022/10/20 03:38:54;;;;;;;;;;;11.20;78.00;;;-151.14;100.00;62537.16;5036720;28;19927;-83
2022/10/20 03:41:22;;;;;;;;;;;11.20;78.10;;;-151.14;100.00;62537.16;5053403;28;20231;-83
2022/10/20 03:43:51;;;;;;;;;;;11.20;78.00;;;-151.14;100.00;62537.16;5036116;28;19928;-83
2022/10/20 03:46:19;;;;;;;;;;;11.20;78.10;;;-151.14;100.00;62537.16;5036570;28;19921;-83
2022/10/20 03:48:47;;;;;;;;;;;11.20;77.90;;;-151.14;100.00;62537.16;5036432;28;20124;-83
2022/10/20 03:51:15;;;;;;;;;;;11.30;78.20;;;-151.14;100.00;62537.16;5036911;28;19927;-83
2022/10/20 03:53:43;;;;;;;;;;;11.20;78.10;;;-151.14;100.00;62537.16;5052480;28;20221;-83
2022/10/20 03:56:14;;;;;;;;;;;11.20;78.10;;;-151.14;100.00;62537.16;5036301;28;19921;-83
2022/10/20 03:58:42;;;;;;;;;;;11.20;78.10;;;-151.14;100.00;62537.16;5063891;28;19926;-83
2022/10/20 04:01:12;;;;;;;;;;;11.20;78.20;;;-151.14;100.00;62537.16;5093110;28;19920;-83
2022/10/20 04:03:40;;;;;;;;;;;11.20;78.20;;;-151.14;100.00;62537.16;5109542;28;19981;-83
2022/10/20 04:06:08;;;;;;;;;;;11.20;78.10;;;-151.14;100.00;62537.16;5075837;28;19926;-83
2022/10/20 04:08:36;;;;;;;;;;;11.20;78.20;;;-151.14;100.00;62537.16;5109917;28;19946;-83
2022/10/20 04:11:04;;;;;;;;;;;11.20;78.10;;;-151.14;100.00;62537.16;5092999;28;19926;-83
2022/10/20 04:13:32;;;;;;;;;;;11.20;78.20;;;-151.14;100.00;62537.16;5075565;28;19930;-83
2022/10/20 04:16:00;;;;;;;;;;;11.20;78.00;;;-151.14;100.00;62537.16;5092806;28;19974;-82
2022/10/20 04:18:29;;;;;;;;;;;11.20;78.10;;;-151.14;100.00;62537.16;5109862;28;19924;-83
2022/10/20 04:20:57;;;;;;;;;;;11.20;78.00;;;-151.14;100.00;62537.16;5092785;28;20115;-83
2022/10/20 04:23:25;;;;;;;;;;;11.20;78.20;;;-151.14;100.00;62537.16;5075457;28;19927;-83
2022/10/20 04:25:53;;;;;;;;;;;11.20;78.30;;;-151.14;100.00;62537.16;5092849;28;19926;-83
2022/10/20 04:28:21;;;;;;;;;;;11.20;78.10;;;-151.14;100.00;62537.16;5093736;28;19942;-83
2022/10/20 04:30:49;;;;;;;;;;;11.20;78.20;;;-151.14;100.00;62537.16;5092622;28;19926;-83
2022/10/20 04:33:17;;;;;;;;;;;11.20;78.20;;;-151.14;100.00;62537.16;5092030;28;19920;-83
2022/10/20 04:35:46;;;;;;;;;;;11.20;78.10;;;-151.14;100.00;62537.16;5093663;28;19928;-83
2022/10/20 04:38:14;;;;;;;;;;;11.20;78.10;;;-151.14;100.00;62537.16;5092421;28;20116;-83
2022/10/20 04:40:42;;;;;;;;;;;11.20;78.20;;;-151.14;100.00;62537.16;5092481;28;19927;-83
2022/10/20 04:43:10;;;;;;;;;;;11.20;78.20;;;-151.14;100.00;62537.16;5093443;28;19920;-83
2022/10/20 04:45:38;;;;;;;;;;;11.20;78.20;;;-151.14;100.00;62537.16;5092089;28;19920;-83
2022/10/20 04:48:06;;;;;;;;;;;11.20;78.30;;;-151.14;100.00;62537.16;5074182;28;19920;-83
2022/10/20 04:50:34;;;;;;;;;;;11.20;78.20;;;-151.14;100.00;62537.16;5078301;28;19920;-83
2022/10/20 04:53:10;;;;;;;;;;;11.20;78.00;;;-151.14;100.00;62537.16;5088905;28;19920;-83
2022/10/20 04:55:37;;;;;;;;;;;11.20;78.10;;;-151.14;100.00;62537.16;5073044;28;19927;-83
2022/10/20 04:58:05;;;;;;;;;;;11.20;78.00;;;-151.14;100.00;62537.16;5071990;28;19920;-83
2022/10/20 05:00:33;;;;;;;;;;;11.20;78.10;;;-151.14;100.00;62537.16;5072079;28;20112;-83
2022/10/20 05:03:01;;;;;;;;;;;11.40;78.20;;;-151.14;100.00;62537.16;5072006;28;19920;-83
2022/10/20 05:05:29;;;;;;;;;;;11.80;77.20;;;-151.14;100.00;62537.16;5071293;28;19927;-83
2022/10/20 05:07:57;;;;;;;;;;;12.30;75.30;;;-151.14;100.00;62537.16;5071805;28;20106;-83
2022/10/20 05:10:27;;;;;;;;;;;12.70;73.20;;;-151.14;100.00;62537.16;5073201;28;19927;-83
2022/10/20 05:12:54;;;;;;;;;;;13.10;71.30;;;-151.14;100.00;62537.16;5071815;28;19927;-83
2022/10/20 05:15:22;;;;;;;;;;;13.40;69.60;;;-151.14;100.00;62537.16;5071439;28;20212;-83
2022/10/20 05:17:50;;;;;;;;;;;13.40;68.30;;;-151.14;100.00;62537.16;5054974;28;19935;-83
2022/10/20 05:20:18;;;;;;;;;;;13.40;68.10;;;-151.14;100.00;62537.16;5071734;28;19921;-83
2022/10/20 05:22:46;;;;;;;;;;;13.40;68.40;;;-151.14;100.00;62537.16;5072833;28;19927;-82
2022/10/20 05:25:14;;;;;;;;;;;13.20;68.80;;;-151.14;100.00;62537.16;5071286;28;19927;-83
2022/10/20 05:27:44;;;;;;;;;;;13.10;69.50;;;-151.14;100.00;62537.16;5071417;28;20119;-83
2022/10/20 05:30:12;;;;;;;;;;;12.90;70.30;;;-151.14;100.00;62537.16;5072833;28;19921;-83
2022/10/20 05:32:40;;;;;;;;;;;12.80;71.10;;;-151.14;100.00;62537.16;5071511;28;19944;-83
2022/10/20 05:35:08;;;;;;;;;;;12.70;71.80;;;-151.14;100.00;62537.16;5054232;28;19920;-83
2022/10/20 05:37:36;;;;;;;;;;;12.50;72.30;;;-151.14;100.00;62537.16;5088274;28;20116;-83
2022/10/20 05:40:06;;;;;;;;;;;12.50;73.10;;;-151.14;100.00;62537.16;5071482;28;19921;-84
2022/10/20 05:42:34;;;;;;;;;;;12.40;73.70;;;-151.14;100.00;62537.16;5088207;28;19921;-83
2022/10/20 05:45:03;;;;;;;;;;;12.30;74.40;;;-151.14;100.00;62537.16;5070849;28;19921;-83
2022/10/20 05:47:31;;;;;;;;;;;12.30;75.10;;;-151.14;100.00;62537.16;5071126;28;20208;-83
2022/10/20 05:49:59;;;;;;;;;;;12.20;75.60;;;-151.14;100.00;62537.16;5071239;28;19921;-83
2022/10/20 05:52:27;;;;;;;;;;;12.20;75.90;;;-151.14;100.00;62537.16;5054500;28;19920;-83
2022/10/20 05:54:55;;;;;;;;;;;12.20;76.20;;;-151.14;100.00;62537.16;5054030;28;19921;-83
2022/10/20 05:57:23;;;;;;;;;;;12.20;76.40;;;-151.14;100.00;62537.16;5054255;28;19927;-84
2022/10/20 05:59:51;;;;;;;;;;;12.20;76.40;;;-151.14;100.00;62537.16;5070951;28;20128;-83
2022/10/20 06:02:21;;;;;;;;;;;12.20;76.50;;;-151.14;100.00;62537.16;5070987;28;20097;-83
2022/10/20 06:04:48;;;;;;;;;;;12.20;76.50;;;-151.14;100.00;62537.16;5070485;28;19986;-84
2022/10/20 06:07:16;;;;;;;;;;;12.20;76.50;;;-151.14;100.00;62537.16;5087804;28;19920;-83
2022/10/20 06:09:44;;;;;;;;;;;12.20;76.50;;;-151.14;100.00;62537.16;5054186;28;19920;-83
2022/10/20 06:12:12;;;;;;;;;;;12.20;76.40;;;-151.14;100.00;62537.16;5071033;28;20319;-83
2022/10/20 06:14:40;;;;;;;;;;;12.20;76.50;;;-151.14;100.00;62537.16;5053756;28;19926;-83
2022/10/20 06:17:08;;;;;;;;;;;12.20;76.30;;;-151.14;100.00;62537.16;5070895;28;20204;-84
2022/10/20 06:19:38;;;;;;;;;;;12.20;76.30;;;-151.14;100.00;62537.16;5070852;28;20101;-83
2022/10/20 06:22:05;;;;;;;;;;;12.20;76.30;;;-151.14;100.00;62537.16;5071860;28;20475;-83
2022/10/20 06:24:33;;;;;;;;;;;12.20;76.20;;;-151.14;100.00;62537.16;5070307;28;19921;-83
2022/10/20 06:27:01;;;;;;;;;;;12.30;76.30;;;-151.14;100.00;62537.16;5070605;28;19921;-83
2022/10/20 06:29:29;;;;;;;;;;;12.30;76.20;;;-151.14;100.00;62537.16;5053981;28;19921;-83
2022/10/20 06:31:57;;;;;;;;;;;12.30;76.30;;;-151.14;100.00;62537.16;5053997;28;19927;-83
2022/10/20 06:34:25;;;;;;;;;;;12.30;76.30;;;-151.14;100.00;62537.16;5071208;28;19921;-83
2022/10/20 06:36:55;;;;;;;;;;;12.30;76.30;;;-151.14;100.00;62537.16;5070666;28;20120;-83
2022/10/20 06:39:23;;;;;;;;;;;12.40;76.30;;;-151.14;100.00;62537.16;5070673;28;19943;-83
2022/10/20 06:41:52;;;;;;;;;;;12.40;76.40;;;-151.14;100.00;62537.16;5087353;28;20357;-83
2022/10/20 06:44:21;;;;;;;;;;;12.40;76.40;;;-151.14;100.00;62537.16;5069867;28;19925;-83
2022/10/20 06:46:51;;;;;;;;;;;12.40;76.40;;;-151.14;100.00;62537.16;5070337;28;19920;-83
2022/10/20 06:49:19;;;;;;;;;;;12.40;76.30;;;-151.14;100.00;62537.16;5053795;28;19921;-83
2022/10/20 06:51:46;;;;;;;;;;;12.40;76.40;;;-151.14;100.00;62537.16;5053653;28;19920;-83
2022/10/20 06:54:16;;;;;;;;;;;12.40;76.30;;;-151.14;100.00;62537.16;5086654;28;19927;-83
2022/10/20 06:56:44;;;;;;;;;;;12.50;76.40;;;-151.14;100.00;62537.16;5053535;28;19920;-83
2022/10/20 06:59:12;;;;;;;;;;;12.50;76.30;;;-151.14;100.00;62537.16;5087194;28;19921;-83
2022/10/20 07:01:41;;;;;;;;;;;12.50;76.30;;;-151.14;100.00;62537.16;5070231;28;19921;-83
2022/10/20 07:04:11;;;;;;;;;;;12.50;76.20;;;-151.14;100.00;62537.16;5053020;28;20106;-83
2022/10/20 07:06:39;;;;;;;;;;;12.60;76.20;;;-151.14;100.00;62537.16;5069992;28;19926;-83
2022/10/20 07:09:08;;;;;;;;;;;12.50;76.10;;;-151.14;100.00;62537.16;5069877;28;20124;-83
2022/10/20 07:11:37;;;;;;;;;;;12.50;76.00;;;-151.14;100.00;62537.16;5069438;28;19921;-83
2022/10/20 07:14:06;;;;;;;;;;;12.50;76.00;;;-151.14;100.00;62537.16;5069500;28;20230;-83
2022/10/20 07:16:34;;;;;;;;;;;12.50;75.90;;;-151.14;100.00;62537.16;5069955;28;19921;-84
2022/10/20 07:19:02;;;;;;;;;;;12.60;75.90;;;-151.14;100.00;62537.16;5069999;28;19920;-83
2022/10/20 07:21:31;;;;;;;;;;;12.60;75.80;;;-151.14;100.00;62537.16;5071130;28;20212;-83
2022/10/20 07:24:00;;;;;;;;;;;12.60;75.80;;;-151.14;100.00;62537.16;5069349;28;19921;-83
2022/10/20 07:26:29;;;;;;;;;;;12.60;75.70;;;-151.14;100.00;62537.16;5053073;28;19927;-84
2022/10/20 07:28:59;;;;;;;;;;;12.60;75.50;;;-151.14;100.00;62537.16;5089876;28;19921;-84
2022/10/20 07:31:28;;;;;;;;;;;12.70;75.60;;;-151.14;100.00;62537.16;5090007;28;19920;-84
2022/10/20 07:33:58;;;;;;;;;;;12.70;75.60;;;-151.14;100.00;62537.16;5090592;28;19921;-84
2022/10/20 07:36:27;;;;;;;;;;;12.70;75.40;;;-151.14;100.00;62537.16;5089925;28;20114;-84
2022/10/20 07:38:55;;;;;;;;;;;12.70;75.40;;;-151.14;100.00;62537.16;5091053;28;20219;-84
2022/10/20 07:41:23;;;;;;;;;;;12.70;75.30;;;-151.14;100.00;62537.16;5090975;28;19920;-83
2022/10/20 07:43:51;;;;;;;;;;;12.70;75.10;;;-151.14;100.00;62537.16;5106329;28;19926;-84
2022/10/20 07:46:21;;;;;;;;;;;12.80;75.20;;;-151.14;100.00;62537.16;5090862;28;20119;-84
2022/10/20 07:48:49;;;;;;;;;;;12.80;75.10;;;-151.14;100.00;62537.16;5073056;28;19920;-84
2022/10/20 07:51:23;;;;;;;;;;;12.80;75.00;;;-151.14;100.00;62537.16;5090771;28;19920;-83
2022/10/20 07:53:52;;;;;;;;;;;12.80;75.00;;;-151.14;100.00;62537.16;5089141;28;20250;-84
2022/10/20 07:56:20;;;;;;;;;;;12.80;74.90;;;-151.14;100.00;62537.16;5106358;28;19925;-84
2022/10/20 07:58:48;;;;;;;;;;;12.80;74.90;;;-151.14;100.00;62537.16;5089610;28;20230;-83
2022/10/20 08:01:16;;;;;;;;;;;12.80;74.90;;;-151.14;100.00;62537.16;5089534;28;19926;-84
2022/10/20 08:03:45;;;;;;;;;;;12.80;75.10;;;-151.14;100.00;62537.16;5074930;28;19921;-84
2022/10/20 08:06:13;;;;;;;;;;;12.80;75.10;;;-151.14;100.00;62537.16;5052621;28;19954;-84
2022/10/20 08:08:41;;;;;;;;;;;12.80;75.00;;;-151.14;100.00;62537.16;5069355;28;20250;-83
2022/10/20 08:11:09;;;;;;;;;;;12.80;74.90;;;-151.14;100.00;62537.16;5086173;28;19921;-84
2022/10/20 08:13:39;;;;;;;;;;;12.80;74.80;;;-151.14;100.00;62537.16;5052095;28;20271;-84
2022/10/20 08:16:08;;;;;;;;;;;12.80;74.90;;;-151.14;100.00;62537.16;5052812;28;19921;-84
2022/10/20 08:18:36;;;;;;;;;;;12.80;74.70;;;-151.14;100.00;62537.16;5081004;28;20245;-83
2022/10/20 08:21:09;;;;;;;;;;;12.80;74.80;;;-151.14;100.00;62537.16;5089920;28;19924;-84
2022/10/20 08:23:41;;;;;;;;;;;12.80;74.70;;;-151.14;100.00;62537.16;5092341;28;19942;-83
2022/10/20 08:26:09;;;;;;;;;;;12.80;74.70;;;-151.14;100.00;62537.16;5093783;28;19927;-83
2022/10/20 08:28:37;;;;;;;;;;;12.80;74.70;;;-151.14;100.00;62537.16;5092848;28;19920;-84
2022/10/20 08:31:05;;;;;;;;;;;12.80;74.90;;;-151.14;100.00;62537.16;5092436;28;19927;-84
2022/10/20 08:33:33;;;;;;;;;;;12.80;75.70;;;-151.14;100.00;62537.16;5091992;28;19935;-84
2022/10/20 08:36:02;;;;;;;;;;;12.80;74.80;;;-151.14;100.00;62537.16;5092516;28;20116;-84
2022/10/20 08:38:32;;;;;;;;;;;12.80;74.90;;;-151.14;100.00;62537.16;5093800;28;19973;-84
2022/10/20 08:41:00;;;;;;;;;;;12.80;75.00;;;-151.14;100.00;62537.16;5075804;28;19920;-83
2022/10/20 08:43:28;;;;;;;;;;;12.80;75.00;;;-151.14;100.00;62537.16;5108937;28;20105;-84
2022/10/20 08:45:56;;;;;;;;;;;12.80;75.00;;;-151.14;100.00;62537.16;5092373;28;19920;-84
2022/10/20 08:48:25;;;;;;;;;;;12.80;75.00;;;-151.14;100.00;62537.16;5087470;28;19926;-84
2022/10/20 08:50:53;;;;;;;;;;;12.80;75.00;;;-151.14;100.00;62537.16;5073344;28;19921;-84
2022/10/20 08:53:22;;;;;;;;;;;12.80;75.10;;;-151.14;100.00;62537.16;5071571;28;19926;-84
2022/10/20 08:55:52;;;;;;;;;;;12.80;75.10;;;-151.14;100.00;62537.16;5072379;28;20119;-83
2022/10/20 08:58:21;;;;;;;;;;;12.80;75.10;;;-151.14;100.00;62537.16;5071915;28;20212;-84
2022/10/20 09:00:50;;;;;;;;;;;12.80;75.10;;;-151.14;100.00;62537.16;5072162;28;19921;-84
2022/10/20 09:03:20;;;;;;;;;;;12.80;75.10;;;-151.14;100.00;62537.16;5072707;28;19921;-84
2022/10/20 09:05:51;;;;;;;;;;;12.80;75.00;;;-151.14;100.00;62537.16;5072972;28;19942;-84
2022/10/20 09:08:19;;;;;;;;;;;12.70;74.90;;;-151.14;100.00;62537.16;5071882;28;20208;-83
2022/10/20 09:10:48;;;;;;;;;;;12.70;74.90;;;-151.14;100.00;62537.16;5072074;28;19927;-84
2022/10/20 09:13:22;;;;;;;;;;;12.80;74.90;;;-151.14;100.00;62537.16;5088254;28;19920;-84
2022/10/20 09:15:50;;;;;;;;;;;12.70;75.00;;;-151.14;100.00;62537.16;5071896;28;19927;-84
2022/10/20 09:18:18;;;;;;;;;;;12.70;74.90;;;-151.14;100.00;62537.16;5071671;28;20101;-83
2022/10/20 09:20:49;;;;;;;;;;;12.70;75.00;;;-151.14;100.00;62537.16;5075540;28;19919;-84
2022/10/20 09:23:18;;;;;;;;;;;12.70;75.10;;;-151.14;100.00;62537.16;5091406;28;19927;-84
2022/10/20 09:25:46;;;;;;;;;;;12.70;75.20;;;-151.14;100.00;62537.16;5091874;28;19920;-83
2022/10/20 09:28:22;;;;;;;;;;;12.70;75.20;;;-151.14;100.00;62537.16;5091764;28;19920;-83
2022/10/20 09:30:50;;;;;;;;;;;12.70;75.00;;;-151.14;100.00;62537.16;5091611;28;19920;-84
2022/10/20 09:33:27;;;;;;;;;;;12.70;75.00;;;-151.14;100.00;62537.16;5073778;28;19920;-84
2022/10/20 09:35:59;;;;;;;;;;;12.70;74.80;;;-151.14;100.00;62537.16;5074963;28;20215;-84
2022/10/20 09:38:28;;;;;;;;;;;12.70;75.00;;;-151.14;100.00;62537.16;5074993;28;19920;-83
2022/10/20 09:40:58;;;;;;;;;;;12.70;75.30;;;-151.14;100.00;62537.16;5091530;28;20124;-83
2022/10/20 09:43:27;;;;;;;;;;;12.60;75.00;;;-151.14;100.00;62537.16;5074255;28;19926;-83
2022/10/20 09:45:58;;;;;;;;;;;12.70;75.00;;;-151.14;100.00;62537.16;5091480;28;19928;-84
2022/10/20 09:48:28;;;;;;;;;;;12.60;74.90;;;-151.14;100.00;62537.16;5074331;28;20208;-84
2022/10/20 09:50:57;;;;;;;;;;;12.60;75.10;;;-151.14;100.00;62537.16;5074543;28;19920;-84
2022/10/20 09:53:26;;;;;;;;;;;12.60;75.30;;;-151.14;100.00;62537.16;5091930;28;19934;-84
2022/10/20 09:55:54;;;;;;;;;;;12.60;75.30;;;-151.14;100.00;62537.16;5108392;28;19942;-84
2022/10/20 09:58:24;;;;;;;;;;;12.60;75.20;;;-151.14;100.00;62537.16;5091219;28;19920;-83
2022/10/20 10:00:59;;;;;;;;;;;12.50;75.40;;;-151.14;100.00;62537.16;5091415;28;19927;-84
2022/10/20 10:03:27;;;;;;;;;;;12.50;75.50;;;-151.14;100.00;62537.16;5090760;28;19920;-84
2022/10/20 10:05:55;;;;;;;;;;;12.60;75.50;;;-151.14;100.00;62537.16;5092267;28;19920;-84
2022/10/20 10:08:24;;;;;;;;;;;12.60;75.50;;;-151.14;100.00;62537.16;5091193;28;19921;-83
2022/10/20 10:11:00;;;;;;;;;;;12.50;75.50;;;-151.14;100.00;62537.16;5091227;28;19920;-84
2022/10/20 10:13:29;;;;;;;;;;;12.50;75.70;;;-151.14;100.00;62537.16;5090528;28;19934;-84
2022/10/20 10:16:04;;;;;;;;;;;12.50;75.60;;;-151.14;100.00;62537.16;5091118;28;19942;-84
2022/10/20 10:18:32;;;;;;;;;;;12.50;75.70;;;-151.14;100.00;62537.16;5091122;28;19920;-84
2022/10/20 10:21:02;;;;;;;;;;;12.50;75.70;;;-151.14;100.00;62537.16;5090979;28;19920;-84
2022/10/20 10:23:30;;;;;;;;;;;12.50;75.70;;;-151.14;100.00;62537.16;5073668;28;19924;-84
2022/10/20 10:25:58;;;;;;;;;;;12.50;75.60;;;-151.14;100.00;62537.16;5074084;28;20343;-84
2022/10/20 10:28:32;;;;;;;;;;;12.50;75.60;;;-151.14;100.00;62537.16;5090833;28;19920;-84
2022/10/20 10:31:21;;;;;;;;;;;12.50;75.60;;;-151.14;100.00;62537.16;5078156;28;19928;-84
2022/10/20 10:33:51;;;;;;;;;;;12.40;75.60;;;-151.14;100.00;62537.16;5070029;28;19927;-84
2022/10/20 10:36:30;;;;;;;;;;;12.40;75.60;;;-151.14;100.00;62537.16;5070478;28;19942;-84
2022/10/20 10:38:58;;;;;;;;;;;12.40;75.40;;;-151.14;100.00;62537.16;5070519;28;19921;-84
2022/10/20 10:41:50;;;;;;;;;;;12.40;75.40;;;-151.14;100.00;62537.16;5071590;28;20224;-84
2022/10/20 10:44:22;;;;;;;;;;;12.40;75.60;;;-151.14;100.00;62537.16;5069256;28;19927;-84
2022/10/20 10:46:55;;;;;;;;;;;12.40;75.20;;;-151.14;100.00;62537.16;5053377;28;19921;-84
2022/10/20 10:49:31;;;;;;;;;;;12.40;75.40;;;-151.14;100.00;62537.16;5087289;28;19926;-83
2022/10/20 10:52:04;;;;;;;;;;;12.40;75.60;;;-151.14;100.00;62537.16;5053613;28;19927;-84
2022/10/20 10:54:45;;;;;;;;;;;12.30;75.40;;;-151.14;100.00;62537.16;5069825;28;20124;-84
2022/10/20 10:57:15;;;;;;;;;;;12.30;75.60;;;-151.14;100.00;62537.16;5070043;28;19920;-84
2022/10/20 10:59:44;;;;;;;;;;;12.30;75.80;;;-151.14;100.00;62537.16;5053724;28;19921;-84
2022/10/20 11:02:29;;;;;;;;;;;12.30;75.60;;;-151.14;100.00;62537.16;5105503;28;20230;-84
2022/10/20 11:05:21;;;;;;;;;;;12.30;75.70;;;-151.14;100.00;62537.16;5089960;28;19920;-84